Time;durP1;ratioP1;P1;durP2;ratioP2;P2;SDS_P1;SDS_P2;PMS_P1;PMS_P2;Temp;Humidity;BMP_temperature;BMP_pressure;BME280_temperature;BME280_humidity;BME280_pressure;Samples;Min_cycle;Max_cycle;Signal;HPM_P1;HPM_P2
2022/09/20 00:00:38;;;;;;;1.38;1.27;;;;;;;12.38;55.51;94996.75;5076572;28;20204;-68
2022/09/20 00:03:05;;;;;;;1.20;1.20;;;;;;;12.38;55.88;94992.06;5076515;28;20656;-68
2022/09/20 00:05:33;;;;;;;1.38;1.30;;;;;;;12.37;55.05;94986.88;5076503;28;20197;-69
2022/09/20 00:08:01;;;;;;;1.30;1.30;;;;;;;12.30;55.73;94990.31;5076748;28;20185;-69
2022/09/20 00:10:29;;;;;;;1.60;1.50;;;;;;;12.29;55.66;94992.28;5075235;28;20279;-69
2022/09/20 00:12:56;;;;;;;1.30;1.20;;;;;;;12.28;55.41;95003.72;5077036;28;20188;-69
2022/09/20 00:15:23;;;;;;;1.10;1.10;;;;;;;12.24;55.05;94997.31;5075303;28;20225;-69
2022/09/20 00:17:50;;;;;;;1.20;1.20;;;;;;;12.24;55.46;95002.84;5075707;28;20197;-69
2022/09/20 00:20:17;;;;;;;1.38;1.27;;;;;;;12.27;55.49;95004.84;5076176;28;20186;-69
2022/09/20 00:22:44;;;;;;;1.40;1.30;;;;;;;12.29;55.48;95008.06;5076353;28;20208;-69
2022/09/20 00:25:10;;;;;;;1.15;1.15;;;;;;;12.31;55.88;95010.44;5075616;28;20241;-69
2022/09/20 00:27:40;;;;;;;1.30;1.30;;;;;;;12.28;55.12;95012.00;5076564;28;20185;-70
2022/09/20 00:30:08;;;;;;;1.40;1.30;;;;;;;12.26;55.34;94998.53;5075516;28;20193;-70
2022/09/20 00:32:35;;;;;;;1.20;1.10;;;;;;;12.24;55.36;95002.84;5075316;28;20231;-70
2022/09/20 00:35:06;;;;;;;1.23;1.02;;;;;;;12.20;55.51;94988.94;5075972;28;20552;-70
2022/09/20 00:37:33;;;;;;;1.10;1.10;;;;;;;12.19;55.47;94989.28;5075328;28;20201;-68
2022/09/20 00:40:00;;;;;;;0.93;0.93;;;;;;;12.19;55.65;94984.56;5075759;28;20212;-68
2022/09/20 00:42:29;;;;;;;1.02;1.02;;;;;;;12.16;55.32;94990.03;5075637;28;20519;-69
2022/09/20 00:44:58;;;;;;;1.00;1.00;;;;;;;12.14;55.52;94997.91;5075737;28;20185;-69
2022/09/20 00:47:38;;;;;;;0.90;0.90;;;;;;;12.13;55.42;94999.03;5075929;28;20625;-69
2022/09/20 00:50:22;;;;;;;1.15;1.15;;;;;;;12.04;55.58;94997.31;5075020;28;20204;-69
2022/09/20 00:52:54;;;;;;;1.00;1.00;;;;;;;12.01;55.95;94995.25;5075889;28;20189;-68
2022/09/20 00:55:21;;;;;;;1.00;1.00;;;;;;;12.01;55.66;94997.22;5076068;28;20501;-68
2022/09/20 00:57:48;;;;;;;1.00;1.00;;;;;;;11.99;55.89;95002.34;5074837;28;20201;-68
2022/09/20 01:00:17;;;;;;;1.10;1.10;;;;;;;11.95;55.48;94996.75;5075705;28;20200;-68
2022/09/20 01:02:47;;;;;;;1.33;1.30;;;;;;;11.96;55.11;94994.78;5075336;28;20723;-69
2022/09/20 01:05:14;;;;;;;1.45;1.35;;;;;;;11.98;55.03;94995.19;5075763;28;20203;-69
2022/09/20 01:07:43;;;;;;;1.00;1.00;;;;;;;11.96;54.60;94997.53;5075702;28;20200;-68
2022/09/20 01:10:10;;;;;;;1.13;1.13;;;;;;;11.96;54.55;94994.78;5074430;28;20189;-68
2022/09/20 01:12:39;;;;;;;1.40;1.40;;;;;;;11.97;54.60;94996.34;5074829;28;20189;-68
2022/09/20 01:15:09;;;;;;;1.20;1.20;;;;;;;11.99;54.05;95003.13;5075261;28;20327;-68
2022/09/20 01:17:41;;;;;;;1.30;1.20;;;;;;;11.93;53.84;95001.03;5075547;28;20185;-67
2022/09/20 01:20:13;;;;;;;1.20;1.20;;;;;;;11.94;54.31;94999.84;5075182;28;20564;-67
2022/09/20 01:22:53;;;;;;;1.20;1.20;;;;;;;11.96;54.00;94997.53;5073875;28;20216;-67
2022/09/20 01:25:30;;;;;;;1.42;1.40;;;;;;;11.97;53.88;94999.13;5074643;28;20624;-67
2022/09/20 01:27:59;;;;;;;1.27;1.27;;;;;;;11.98;53.48;94993.25;5075166;28;20193;-67
2022/09/20 01:30:28;;;;;;;1.30;1.30;;;;;;;11.97;53.33;94994.38;5075341;28;20196;-67
2022/09/20 01:33:04;;;;;;;1.40;1.30;;;;;;;11.94;53.40;94991.56;5075131;28;20181;-68
2022/09/20 01:35:33;;;;;;;1.10;1.10;;;;;;;11.91;53.47;94992.28;5075445;28;20196;-68
2022/09/20 01:38:12;;;;;;;1.30;1.30;;;;;;;11.91;53.53;94997.81;5074395;28;20202;-68
2022/09/20 01:40:45;;;;;;;1.40;1.40;;;;;;;11.92;53.71;94993.91;5075213;28;20201;-68
2022/09/20 01:43:18;;;;;;;1.45;1.35;;;;;;;11.91;53.70;94995.03;5075372;28;20209;-68
2022/09/20 01:45:48;;;;;;;1.40;1.30;;;;;;;11.88;53.75;94998.56;5074847;28;20197;-67
2022/09/20 01:48:22;;;;;;;1.50;1.40;;;;;;;11.87;53.69;95002.47;5075147;28;20193;-67
2022/09/20 01:51:09;;;;;;;1.30;1.20;;;;;;;11.84;53.69;95009.53;5074461;28;20196;-68
2022/09/20 01:53:53;;;;;;;1.40;1.30;;;;;;;11.80;53.86;95014.94;5074130;28;20536;-69
2022/09/20 01:56:58;;;;;;;1.88;1.73;;;;;;;11.76;54.21;95014.06;5074242;28;20200;-68
2022/09/20 01:59:46;;;;;;;1.42;1.42;;;;;;;11.76;53.91;95004.97;5049583;28;20212;-68
2022/09/20 02:02:32;;;;;;;1.42;1.40;;;;;;;11.72;54.43;95004.09;5074614;28;20196;-68
2022/09/20 02:05:23;;;;;;;1.83;1.30;;;;;;;11.68;54.85;94992.16;5073782;28;20724;-68
2022/09/20 02:08:06;;;;;;;1.33;1.33;;;;;;;11.71;54.96;94981.19;5074129;28;20201;-68
2022/09/20 02:10:58;;;;;;;1.50;1.50;;;;;;;11.72;54.40;94971.72;5073817;28;20204;-68
2022/09/20 02:13:30;;;;;;;1.58;1.58;;;;;;;11.74;54.29;94976.91;5069494;28;20212;-69
2022/09/20 02:16:20;;;;;;;1.50;1.40;;;;;;;11.73;54.32;94972.56;5073657;28;20201;-68
2022/09/20 02:19:20;;;;;;;1.50;1.40;;;;;;;11.66;54.31;94986.22;5073956;28;20272;-68
2022/09/20 02:21:51;;;;;;;1.38;1.38;;;;;;;11.64;54.29;94975.50;5057913;28;20229;-68
2022/09/20 02:24:26;;;;;;;1.85;1.75;;;;;;;11.63;54.68;94973.91;5074770;28;20205;-68
2022/09/20 02:27:05;;;;;;;1.60;1.50;;;;;;;11.63;54.59;94976.69;5074516;28;20200;-68
2022/09/20 02:29:40;;;;;;;1.40;1.40;;;;;;;11.61;54.93;94987.28;5074037;28;20201;-68
2022/09/20 02:32:23;;;;;;;1.42;1.40;;;;;;;11.55;55.01;94975.72;5073826;28;20200;-68
2022/09/20 02:35:12;;;;;;;1.40;1.40;;;;;;;11.51;55.55;94985.91;5078110;28;20304;-68
2022/09/20 02:38:01;;;;;;;1.70;1.60;;;;;;;11.44;56.06;94999.56;5078613;28;20182;-68
2022/09/20 02:40:40;;;;;;;1.30;1.30;;;;;;;11.38;56.45;94989.94;5073229;28;20236;-67
2022/09/20 02:43:15;;;;;;;1.50;1.50;;;;;;;11.36;56.50;94994.22;5077779;28;20212;-68
2022/09/20 02:45:46;;;;;;;1.70;1.60;;;;;;;11.31;57.09;94998.84;5077637;28;20207;-67
2022/09/20 02:48:16;;;;;;;1.52;1.42;;;;;;;11.30;57.39;94999.22;5077178;28;20632;-68
2022/09/20 02:50:47;;;;;;;1.60;1.50;;;;;;;11.26;57.01;94996.38;5077156;28;20196;-68
2022/09/20 02:53:26;;;;;;;1.70;1.60;;;;;;;11.29;57.15;95003.13;5077845;28;20598;-68
2022/09/20 02:56:00;;;;;;;1.80;1.70;;;;;;;11.28;57.60;95004.28;5077096;28;20199;-68
2022/09/20 02:58:37;;;;;;;1.60;1.50;;;;;;;11.25;57.30;95003.03;5077143;28;20192;-69
2022/09/20 03:01:09;;;;;;;1.70;1.60;;;;;;;11.23;57.21;95007.34;5078247;28;20197;-68
2022/09/20 03:03:46;;;;;;;1.85;1.75;;;;;;;11.22;57.61;95006.53;5078028;28;20228;-68
2022/09/20 03:06:21;;;;;;;1.60;1.50;;;;;;;11.23;57.74;95004.59;5076998;28;20535;-69
2022/09/20 03:08:52;;;;;;;1.90;1.80;;;;;;;11.24;57.31;95001.44;5078398;28;20177;-69
2022/09/20 03:11:27;;;;;;;1.80;1.70;;;;;;;11.22;57.34;95001.03;5077282;28;20193;-69
2022/09/20 03:14:16;;;;;;;1.73;1.63;;;;;;;11.19;57.19;94995.41;5077678;28;20232;-70
2022/09/20 03:17:01;;;;;;;1.80;1.70;;;;;;;11.16;57.52;95004.41;5074386;28;20200;-67
2022/09/20 03:19:38;;;;;;;1.92;1.77;;;;;;;11.13;57.80;95008.69;5076875;28;20620;-68
2022/09/20 03:22:14;;;;;;;1.73;1.63;;;;;;;11.14;57.68;95012.25;5076787;28;20201;-67
2022/09/20 03:24:48;;;;;;;1.65;1.55;;;;;;;11.14;57.56;95006.72;5077099;28;20212;-68
2022/09/20 03:27:19;;;;;;;1.65;1.55;;;;;;;11.11;57.58;95008.25;5077382;28;20180;-67
2022/09/20 03:29:58;;;;;;;1.45;1.38;;;;;;;11.08;57.60;95012.53;5077692;28;20516;-67
2022/09/20 03:32:39;;;;;;;2.50;2.30;;;;;;;11.06;57.49;95014.81;5077332;28;20220;-67
2022/09/20 03:35:31;;;;;;;1.92;1.83;;;;;;;11.05;57.70;95021.50;5076576;28;20203;-68
2022/09/20 03:38:08;;;;;;;1.80;1.70;;;;;;;11.03;57.89;95009.22;5077320;28;20189;-67
2022/09/20 03:41:06;;;;;;;2.00;1.80;;;;;;;10.95;57.70;95016.53;5077245;28;20192;-67
2022/09/20 03:43:43;;;;;;;1.45;1.40;;;;;;;10.95;57.94;95012.97;5076121;28;20251;-67
2022/09/20 03:46:17;;;;;;;1.90;1.80;;;;;;;10.94;57.99;95017.69;5076629;28;20192;-67
2022/09/20 03:49:10;;;;;;;1.80;1.70;;;;;;;10.94;58.01;95016.91;5076472;28;20197;-67
2022/09/20 03:51:45;;;;;;;2.28;2.08;;;;;;;10.92;57.53;95013.69;5067349;28;20215;-67
2022/09/20 03:54:53;;;;;;;1.80;1.70;;;;;;;10.91;57.61;95018.41;5076188;28;20520;-67
2022/09/20 03:57:40;;;;;;;2.03;1.55;;;;;;;10.89;57.26;95014.38;5047463;28;20227;-67
2022/09/20 04:00:22;;;;;;;1.50;1.40;;;;;;;10.89;57.16;95004.13;5076318;28;20193;-68
2022/09/20 04:03:07;;;;;;;1.70;1.55;;;;;;;10.90;56.94;95013.25;5075687;28;20295;-68
2022/09/20 04:05:45;;;;;;;1.40;1.30;;;;;;;10.90;56.97;95013.25;5076954;28;20279;-68
2022/09/20 04:08:24;;;;;;;1.75;1.65;;;;;;;10.90;57.28;95019.56;5076479;28;20204;-68
2022/09/20 04:11:01;;;;;;;1.50;1.40;;;;;;;10.84;57.39;95021.78;5076458;28;20265;-68
2022/09/20 04:13:35;;;;;;;1.70;1.60;;;;;;;10.84;57.49;95032.81;5076662;28;20185;-68
2022/09/20 04:16:13;;;;;;;1.63;1.52;;;;;;;10.84;57.57;95035.56;5075577;28;20542;-68
2022/09/20 04:18:44;;;;;;;1.52;1.48;;;;;;;10.84;57.38;95037.53;5076385;28;20200;-68
2022/09/20 04:21:14;;;;;;;1.42;1.40;;;;;;;10.76;57.72;95036.53;5076002;28;20200;-68
2022/09/20 04:23:49;;;;;;;1.90;1.80;;;;;;;10.79;57.94;95026.78;5076122;28;20648;-68
2022/09/20 04:26:21;;;;;;;2.17;1.98;;;;;;;10.80;57.85;95042.97;5075449;28;20184;-68
2022/09/20 04:28:52;;;;;;;1.90;1.80;;;;;;;10.80;58.01;95042.97;5075951;28;20232;-68
2022/09/20 04:31:27;;;;;;;3.55;2.72;;;;;;;10.79;57.60;95049.63;5075160;28;20197;-68
2022/09/20 04:33:56;;;;;;;2.75;1.70;;;;;;;10.78;58.15;95049.97;5075330;28;20639;-68
2022/09/20 04:36:42;;;;;;;2.20;1.98;;;;;;;10.78;57.94;95042.53;5076244;28;20239;-67
2022/09/20 04:39:20;;;;;;;3.03;2.80;;;;;;;10.76;58.07;95038.50;5074652;28;20204;-67
2022/09/20 04:42:29;;;;;;;3.50;3.20;;;;;;;10.77;58.38;95048.38;5075775;28;20207;-67
2022/09/20 04:45:50;;;;;;;2.05;1.90;;;;;;;10.78;58.02;95052.72;5054198;28;20244;-67
2022/09/20 04:48:41;;;;;;;1.98;1.80;;;;;;;10.76;58.15;95041.28;5075925;28;20193;-67
2022/09/20 04:51:40;;;;;;;1.88;1.77;;;;;;;10.76;57.79;95044.81;5074892;28;20197;-68
2022/09/20 04:54:34;;;;;;;1.85;1.75;;;;;;;10.78;57.73;95050.81;5074999;28;20205;-68
2022/09/20 04:57:29;;;;;;;1.85;1.75;;;;;;;10.76;57.82;95047.59;5071868;28;20625;-69
2022/09/20 05:00:04;;;;;;;2.00;1.83;;;;;;;10.78;57.99;95047.22;5075469;28;20667;-68
2022/09/20 05:02:59;;;;;;;2.15;1.98;;;;;;;10.83;58.23;95044.22;5075320;28;20707;-68
2022/09/20 05:05:42;;;;;;;2.35;2.08;;;;;;;10.87;57.84;95049.81;5068370;28;20213;-68
2022/09/20 05:08:45;;;;;;;1.75;1.65;;;;;;;10.90;57.70;95041.63;5074787;28;20193;-68
2022/09/20 05:11:40;;;;;;;2.22;1.63;;;;;;;10.90;57.83;95047.16;4997677;28;20203;-68
2022/09/20 05:14:37;;;;;;;2.35;1.83;;;;;;;10.93;58.24;95048.38;5074515;28;20229;-68
2022/09/20 05:17:14;;;;;;;1.70;1.60;;;;;;;10.95;58.23;95068.16;5075476;28;20185;-68
2022/09/20 05:19:54;;;;;;;2.28;1.95;;;;;;;10.97;58.63;95071.38;5075637;28;20208;-68
2022/09/20 05:22:47;;;;;;;2.30;2.20;;;;;;;10.95;58.43;95060.69;5074197;28;20541;-68
2022/09/20 05:25:37;;;;;;;2.00;1.90;;;;;;;10.98;58.20;95061.94;5070315;28;20228;-68
2022/09/20 05:28:09;;;;;;;1.90;1.80;;;;;;;10.99;58.20;95071.81;5074227;28;20283;-68
2022/09/20 05:30:39;;;;;;;1.63;1.52;;;;;;;10.99;58.52;95063.53;5074458;28;20197;-68
2022/09/20 05:33:17;;;;;;;1.90;1.77;;;;;;;11.02;58.26;95063.63;5074357;28;20201;-68
2022/09/20 05:35:50;;;;;;;1.80;1.70;;;;;;;11.04;58.29;95071.56;5075500;28;20269;-68
2022/09/20 05:38:25;;;;;;;2.33;1.70;;;;;;;11.06;58.45;95070.03;5075230;28;20193;-68
2022/09/20 05:41:06;;;;;;;1.83;1.73;;;;;;;11.10;57.99;95070.13;5074540;28;20192;-68
2022/09/20 05:43:36;;;;;;;1.70;1.60;;;;;;;11.10;58.30;95061.84;5075124;28;20266;-69
2022/09/20 05:46:14;;;;;;;1.75;1.65;;;;;;;11.12;57.86;95067.81;5075069;28;20189;-68
2022/09/20 05:48:52;;;;;;;2.17;1.55;;;;;;;11.14;58.15;95070.19;5074943;28;20185;-68
2022/09/20 05:51:30;;;;;;;2.10;1.50;;;;;;;11.14;58.08;95068.25;5074777;28;20208;-71
2022/09/20 05:54:18;;;;;;;2.20;2.00;;;;;;;11.12;57.63;95069.78;5073977;28;20192;-69
2022/09/20 05:56:49;;;;;;;2.92;2.65;;;;;;;11.13;57.84;95068.59;5075294;28;20201;-69
2022/09/20 05:59:26;;;;;;;2.22;2.00;;;;;;;11.12;58.08;95069.78;5075196;28;20185;-69
2022/09/20 06:02:19;;;;;;;2.50;2.30;;;;;;;11.14;58.29;95071.00;5074999;28;20196;-69
2022/09/20 06:04:55;;;;;;;3.20;2.20;;;;;;;11.19;58.15;95069.94;5075218;28;20295;-69
2022/09/20 06:07:30;;;;;;;2.00;1.80;;;;;;;11.24;58.48;95064.16;5074688;28;20231;-69
2022/09/20 06:10:24;;;;;;;2.22;1.80;;;;;;;11.30;58.46;95071.00;5078917;28;20197;-69
2022/09/20 06:12:56;;;;;;;2.53;2.03;;;;;;;11.31;57.94;95072.59;5079106;28;20185;-69
2022/09/20 06:15:29;;;;;;;3.92;2.88;;;;;;;11.32;57.74;95069.47;5077692;28;20243;-69
2022/09/20 06:18:01;;;;;;;3.08;1.88;;;;;;;11.36;58.06;95063.25;5078878;28;20586;-68
2022/09/20 06:20:31;;;;;;;1.67;1.50;;;;;;;11.41;58.42;95074.03;5078453;28;20523;-68
2022/09/20 06:23:00;;;;;;;1.48;1.38;;;;;;;11.47;58.08;95069.81;5077987;28;20193;-68
2022/09/20 06:25:30;;;;;;;1.83;1.48;;;;;;;11.49;58.46;95067.50;5077912;28;20227;-69
2022/09/20 06:28:01;;;;;;;1.25;1.20;;;;;;;11.49;58.94;95067.50;5078010;28;20203;-68
2022/09/20 06:30:33;;;;;;;4.00;1.65;;;;;;;11.49;58.87;95070.28;5078298;28;20594;-68
2022/09/20 06:33:01;;;;;;;1.33;1.23;;;;;;;11.49;58.80;95075.81;5078797;28;20181;-68
2022/09/20 06:35:35;;;;;;;1.95;1.50;;;;;;;11.48;58.80;95066.72;5076989;28;20200;-68
2022/09/20 06:43:44;;;;;;;1.25;1.15;;;;;;;11.67;58.29;95078.97;5078002;28;20208;-68
2022/09/20 06:46:14;;;;;;;1.30;1.20;;;;;;;11.71;58.17;95077.09;5078400;28;20189;-68
2022/09/20 06:48:42;;;;;;;1.58;1.48;;;;;;;11.79;57.96;95070.56;5077545;28;20606;-68
2022/09/20 06:51:09;;;;;;;1.40;1.30;;;;;;;11.82;57.78;95070.66;5078323;28;20181;-68
2022/09/20 06:53:39;;;;;;;2.17;1.38;;;;;;;11.84;57.77;95073.09;5077499;28;20207;-69
2022/09/20 06:56:08;;;;;;;1.90;1.80;;;;;;;11.88;57.68;95070.41;5078077;28;20233;-68
2022/09/20 06:58:34;;;;;;;2.95;2.60;;;;;;;11.91;57.37;95073.25;5077059;28;20285;-68
2022/09/20 07:01:01;;;;;;;2.63;1.98;;;;;;;11.96;57.22;95083.22;5077695;28;20220;-68
2022/09/20 07:03:30;;;;;;;2.38;2.22;;;;;;;11.98;57.18;95086.41;5060527;28;20229;-68
2022/09/20 07:05:57;;;;;;;2.10;2.00;;;;;;;11.97;56.82;95085.59;5077820;28;20656;-68
2022/09/20 07:08:24;;;;;;;1.85;1.70;;;;;;;12.00;56.43;95082.13;5077580;28;20189;-69
2022/09/20 07:10:51;;;;;;;2.47;1.77;;;;;;;12.03;56.21;95089.69;5077998;28;20185;-68
2022/09/20 07:13:20;;;;;;;1.75;1.65;;;;;;;12.07;55.97;95081.47;5077579;28;20196;-68
2022/09/20 07:15:47;;;;;;;1.95;1.80;;;;;;;12.15;56.14;95087.97;5077584;28;20188;-68
2022/09/20 07:18:13;;;;;;;2.55;1.70;;;;;;;12.24;55.99;95088.56;5076852;28;20197;-68
2022/09/20 07:20:42;;;;;;;1.60;1.50;;;;;;;12.25;55.68;95084.63;5077020;28;20193;-68
2022/09/20 07:23:08;;;;;;;1.50;1.40;;;;;;;12.34;56.27;95090.72;5076724;28;20205;-69
2022/09/20 07:25:36;;;;;;;1.92;1.70;;;;;;;12.42;55.74;95088.94;5076397;28;20213;-68
2022/09/20 07:28:03;;;;;;;1.80;1.70;;;;;;;12.45;55.42;95090.94;5076749;28;20197;-69
2022/09/20 07:30:30;;;;;;;1.73;1.63;;;;;;;12.51;55.06;95083.97;5077265;28;20200;-69
2022/09/20 07:32:56;;;;;;;2.30;2.10;;;;;;;12.54;54.99;95088.78;5076536;28;20220;-68
2022/09/20 07:35:24;;;;;;;2.28;1.50;;;;;;;12.55;55.04;95079.31;5076679;28;20204;-69
2022/09/20 07:37:58;;;;;;;1.60;1.50;;;;;;;12.57;54.44;95076.97;5077023;28;20243;-69
2022/09/20 07:40:26;;;;;;;1.90;1.52;;;;;;;12.64;54.91;95081.84;5077377;28;20193;-69
2022/09/20 07:42:53;;;;;;;1.70;1.60;;;;;;;12.72;55.11;95083.59;5077398;28;20188;-69
2022/09/20 07:45:19;;;;;;;1.75;1.50;;;;;;;12.80;54.54;95079.78;5077160;28;20197;-69
2022/09/20 07:47:46;;;;;;;1.80;1.70;;;;;;;12.86;54.73;95072.00;5077277;28;20207;-69
2022/09/20 07:50:13;;;;;;;3.17;1.80;;;;;;;12.85;53.67;95067.59;5077120;28;20192;-69
2022/09/20 07:52:40;;;;;;;1.48;1.38;;;;;;;12.87;54.20;95076.34;5077217;28;20208;-69
2022/09/20 07:55:09;;;;;;;1.25;1.23;;;;;;;12.93;53.67;95074.91;5076817;28;20201;-69
2022/09/20 07:57:37;;;;;;;1.60;1.50;;;;;;;12.99;53.95;95065.88;5076043;28;20211;-69
2022/09/20 08:00:06;;;;;;;2.60;1.40;;;;;;;13.09;53.48;95075.56;5077257;28;20644;-69
2022/09/20 08:02:33;;;;;;;1.50;1.40;;;;;;;13.16;53.13;95061.06;5076669;28;20549;-70
2022/09/20 08:05:00;;;;;;;1.40;1.30;;;;;;;13.21;52.03;95063.50;5077318;28;20224;-69
2022/09/20 08:07:27;;;;;;;1.50;1.40;;;;;;;13.20;51.69;95059.94;5076033;28;20220;-69
2022/09/20 08:09:53;;;;;;;1.52;1.42;;;;;;;13.19;51.78;95061.09;5075882;28;20250;-69
2022/09/20 08:12:22;;;;;;;1.20;1.10;;;;;;;13.24;51.32;95060.03;5075814;28;20193;-69
2022/09/20 08:14:48;;;;;;;1.55;1.33;;;;;;;13.36;52.09;95064.56;5076496;28;20236;-69
2022/09/20 08:17:15;;;;;;;1.00;1.00;;;;;;;13.47;48.71;95057.22;5076067;28;20200;-69
2022/09/20 08:19:43;;;;;;;2.35;1.42;;;;;;;13.57;49.61;95062.13;5076708;28;20182;-69
2022/09/20 08:22:11;;;;;;;1.23;1.20;;;;;;;13.63;49.67;95063.44;5075479;28;20208;-69
2022/09/20 08:24:38;;;;;;;2.03;1.30;;;;;;;13.73;50.85;95070.31;5076034;28;20248;-69
2022/09/20 08:27:05;;;;;;;1.63;1.35;;;;;;;13.85;49.69;95072.84;5076212;28;20259;-69
2022/09/20 08:29:33;;;;;;;1.23;1.23;;;;;;;13.88;48.95;95074.09;5076279;28;20182;-69
2022/09/20 08:32:01;;;;;;;1.10;1.10;;;;;;;13.91;48.95;95065.03;5074905;28;20205;-69
2022/09/20 08:34:28;;;;;;;1.40;1.30;;;;;;;13.91;47.72;95067.81;5076133;28;20242;-69
2022/09/20 08:36:55;;;;;;;1.45;1.33;;;;;;;13.87;48.62;95055.84;5076278;28;20193;-69
2022/09/20 08:39:22;;;;;;;1.70;1.40;;;;;;;13.80;48.53;95058.50;5075898;28;20209;-69
2022/09/20 08:41:54;;;;;;;1.92;1.38;;;;;;;13.74;48.86;95049.72;5076077;28;20189;-69
2022/09/20 08:44:25;;;;;;;1.27;1.17;;;;;;;13.74;49.09;95049.72;5076032;28;20209;-68
2022/09/20 08:47:04;;;;;;;1.63;1.52;;;;;;;13.76;48.82;95052.91;5076303;28;20193;-69
2022/09/20 08:49:31;;;;;;;1.58;1.48;;;;;;;13.76;48.36;95043.81;5075301;28;20235;-69
2022/09/20 08:51:59;;;;;;;1.38;1.10;;;;;;;13.70;48.60;95048.88;5074990;28;20193;-69
2022/09/20 08:54:26;;;;;;;1.80;1.70;;;;;;;13.68;48.74;95034.59;5076031;28;20184;-68
2022/09/20 08:56:54;;;;;;;1.50;1.40;;;;;;;13.68;49.06;95040.13;5075601;28;20200;-69
2022/09/20 08:59:24;;;;;;;1.38;1.23;;;;;;;13.66;47.95;95042.50;5075059;28;20209;-69
2022/09/20 09:01:51;;;;;;;1.17;1.08;;;;;;;13.69;48.68;95038.97;5075791;28;20308;-68
2022/09/20 09:04:22;;;;;;;1.30;1.20;;;;;;;13.83;48.89;95024.50;5075360;28;20188;-68
2022/09/20 09:06:49;;;;;;;1.10;1.10;;;;;;;14.04;48.24;95035.09;5075045;28;20295;-68
2022/09/20 09:09:19;;;;;;;1.90;1.10;;;;;;;14.13;48.47;95033.63;5075273;28;20609;-68
2022/09/20 09:11:48;;;;;;;1.35;1.08;;;;;;;14.11;48.19;95024.88;5075328;28;20228;-68
2022/09/20 09:17:10;;;;;;;1.52;1.00;;;;;;;14.01;48.00;95030.28;5074717;28;20196;-68
2022/09/20 09:19:46;;;;;;;1.13;1.13;;;;;;;13.92;47.33;95025.81;5074409;28;20592;-68
2022/09/20 09:22:19;;;;;;;1.20;1.20;;;;;;;13.89;47.90;95020.22;5075185;28;20238;-68
2022/09/20 09:24:46;;;;;;;1.13;1.10;;;;;;;13.86;47.42;95015.44;5075193;28;20205;-68
2022/09/20 09:27:16;;;;;;;1.60;1.50;;;;;;;13.85;48.49;95011.06;5074525;28;20196;-68
2022/09/20 09:29:49;;;;;;;1.98;1.80;;;;;;;13.86;48.69;95007.13;5075460;28;20178;-68
2022/09/20 09:32:22;;;;;;;2.00;1.30;;;;;;;13.87;48.59;95008.72;5075256;28;20246;-68
2022/09/20 09:34:51;;;;;;;3.63;2.10;;;;;;;14.02;49.65;95002.19;5074053;28;20204;-68
2022/09/20 09:37:27;;;;;;;1.70;1.60;;;;;;;14.23;48.34;94995.31;5075015;28;20181;-68
2022/09/20 09:40:11;;;;;;;4.10;2.42;;;;;;;14.21;47.37;94988.16;5074665;28;20203;-68
2022/09/20 09:42:48;;;;;;;3.42;2.38;;;;;;;14.21;46.63;94990.16;5073480;28;20230;-68
2022/09/20 09:45:26;;;;;;;3.55;2.30;;;;;;;14.17;46.73;94989.31;5075181;28;20213;-68
2022/09/20 09:47:53;;;;;;;1.40;1.30;;;;;;;14.27;47.05;94991.41;5075254;28;20181;-68
2022/09/20 09:50:25;;;;;;;1.20;1.10;;;;;;;14.47;47.32;94983.69;5074295;28;20200;-68
2022/09/20 09:53:01;;;;;;;1.30;1.20;;;;;;;14.73;47.23;94999.47;5075110;28;20193;-68
2022/09/20 09:55:51;;;;;;;1.02;1.02;;;;;;;14.92;44.87;94993.72;5074244;28;20597;-68
2022/09/20 09:58:31;;;;;;;1.35;1.02;;;;;;;15.11;45.04;94989.91;5075106;28;20181;-67
2022/09/20 10:01:01;;;;;;;1.00;1.00;;;;;;;15.23;44.57;94986.03;5074629;28;20208;-68
2022/09/20 10:03:46;;;;;;;1.42;1.20;;;;;;;15.34;45.79;94981.34;5075151;28;20212;-68
2022/09/20 10:06:30;;;;;;;1.67;1.58;;;;;;;15.53;44.45;94982.28;5074311;28;20291;-68
2022/09/20 10:09:16;;;;;;;1.15;1.15;;;;;;;15.62;43.15;94991.88;5074378;28;20197;-68
2022/09/20 10:11:57;;;;;;;1.30;1.20;;;;;;;15.69;41.73;94985.59;5075109;28;20189;-68
2022/09/20 10:14:34;;;;;;;1.52;1.42;;;;;;;15.59;42.49;94987.09;5073748;28;20264;-68
2022/09/20 10:17:17;;;;;;;1.50;1.40;;;;;;;15.57;42.41;94977.53;5074950;28;20185;-68
2022/09/20 10:19:55;;;;;;;1.33;1.23;;;;;;;15.53;42.08;94987.81;5074894;28;20196;-67
2022/09/20 10:22:33;;;;;;;2.25;1.20;;;;;;;15.66;42.24;94982.78;5074865;28;20200;-67
2022/09/20 10:25:09;;;;;;;1.20;1.20;;;;;;;15.79;41.75;94973.72;5074983;28;20270;-68
2022/09/20 10:27:47;;;;;;;3.03;1.90;;;;;;;15.74;41.71;94985.22;5073907;28;20204;-68
2022/09/20 10:30:16;;;;;;;2.00;1.60;;;;;;;15.71;42.14;94988.78;5074698;28;20287;-68
2022/09/20 10:32:58;;;;;;;1.20;1.20;;;;;;;15.76;43.04;94982.88;5074068;28;20200;-68
2022/09/20 10:35:26;;;;;;;1.70;1.60;;;;;;;15.85;41.49;94980.50;5074794;28;20197;-68
2022/09/20 10:38:06;;;;;;;1.70;1.60;;;;;;;15.96;41.62;94979.78;5074421;28;20208;-69
2022/09/20 10:43:30;;;;;;;1.80;1.70;;;;;;;16.21;41.56;94982.69;5073356;28;20610;-68
2022/09/20 10:46:06;;;;;;;1.83;1.73;;;;;;;16.34;41.44;94986.72;5073730;28;20209;-68
2022/09/20 10:48:40;;;;;;;1.50;1.40;;;;;;;16.44;41.44;94985.13;5073648;28;20193;-68
2022/09/20 10:51:13;;;;;;;1.70;1.60;;;;;;;16.52;41.19;94982.00;5073553;28;20192;-68
2022/09/20 10:53:44;;;;;;;1.60;1.50;;;;;;;16.56;40.11;94980.03;5075289;28;20189;-69
2022/09/20 10:56:22;;;;;;;1.90;1.80;;;;;;;16.60;40.16;94982.81;5077414;28;20181;-68
2022/09/20 10:59:05;;;;;;;1.98;1.70;;;;;;;16.53;38.82;94980.00;5077398;28;20204;-68
2022/09/20 11:01:37;;;;;;;2.30;2.10;;;;;;;16.54;38.34;94978.81;5077135;28;20216;-68
2022/09/20 11:04:30;;;;;;;2.08;1.80;;;;;;;16.50;38.42;94973.22;5077793;28;20594;-68
2022/09/20 11:07:09;;;;;;;1.60;1.50;;;;;;;16.45;39.07;94970.84;5077441;28;20228;-68
2022/09/20 11:09:41;;;;;;;1.60;1.50;;;;;;;16.53;38.73;94968.88;5077949;28;20204;-68
2022/09/20 11:12:14;;;;;;;1.60;1.50;;;;;;;16.59;38.51;94961.72;5077052;28;20204;-68
2022/09/20 11:14:44;;;;;;;1.52;1.50;;;;;;;16.64;39.30;94964.13;5076933;28;20235;-68
2022/09/20 11:17:15;;;;;;;1.67;1.58;;;;;;;16.71;39.08;94957.78;5077706;28;20196;-68
2022/09/20 11:19:48;;;;;;;1.63;1.52;;;;;;;16.83;40.32;94955.44;5077815;28;20212;-68
2022/09/20 11:22:18;;;;;;;1.67;1.58;;;;;;;16.92;39.35;94954.25;5076848;28;20201;-68
2022/09/20 11:24:49;;;;;;;1.65;1.50;;;;;;;16.99;39.16;94952.28;5077878;28;20173;-68
2022/09/20 11:27:18;;;;;;;1.23;1.23;;;;;;;16.91;38.25;94963.78;5076801;28;20225;-68
2022/09/20 11:29:50;;;;;;;1.50;1.40;;;;;;;16.91;40.24;94955.44;5077478;28;20181;-70
2022/09/20 11:32:20;;;;;;;1.55;1.45;;;;;;;17.00;40.37;94955.84;5076659;28;20209;-70
2022/09/20 11:34:52;;;;;;;1.48;1.38;;;;;;;17.06;38.87;94945.88;5077336;28;20205;-69
2022/09/20 11:37:19;;;;;;;2.05;1.80;;;;;;;17.09;40.24;94931.97;5077078;28;20193;-70
2022/09/20 11:39:51;;;;;;;1.50;1.40;;;;;;;17.13;40.10;94939.53;5077944;28;20200;-69
2022/09/20 11:42:20;;;;;;;1.52;1.20;;;;;;;17.14;37.16;94950.28;5076561;28;20213;-70
2022/09/20 11:44:47;;;;;;;1.52;1.40;;;;;;;17.09;38.35;94937.53;5077381;28;20181;-74
2022/09/20 11:47:19;;;;;;;1.50;1.40;;;;;;;17.16;38.83;94939.53;5077177;28;20209;-71
2022/09/20 11:49:57;;;;;;;1.70;1.40;;;;;;;17.18;37.77;94944.72;5077569;28;20185;-72
2022/09/20 11:52:44;;;;;;;1.70;1.60;;;;;;;17.18;39.23;94937.16;5076113;28;20211;-72
2022/09/20 11:55:31;;;;;;;1.83;1.50;;;;;;;17.24;38.66;94934.75;5076913;28;20189;-71
2022/09/20 11:58:03;;;;;;;1.92;1.70;;;;;;;17.22;38.20;94914.84;5076388;28;20209;-74
2022/09/20 12:00:31;;;;;;;2.47;1.40;;;;;;;17.22;37.82;94921.22;5077248;28;20195;-72
2022/09/20 12:02:58;;;;;;;1.52;1.42;;;;;;;17.08;38.24;94926.78;5076449;28;20201;-73
2022/09/20 12:05:31;;;;;;;1.83;1.45;;;;;;;17.01;37.90;94935.16;5075652;28;20217;-73
2022/09/20 12:08:00;;;;;;;1.50;1.40;;;;;;;16.87;37.50;94929.56;5076293;28;20197;-72
2022/09/20 12:10:31;;;;;;;1.70;1.60;;;;;;;16.73;38.39;94930.31;5076230;28;20207;-73
2022/09/20 12:13:00;;;;;;;1.80;1.70;;;;;;;16.64;39.48;94927.13;5076219;28;20266;-72
2022/09/20 12:15:32;;;;;;;1.60;1.50;;;;;;;16.56;38.72;94934.69;5076603;28;20252;-72
2022/09/20 12:18:14;;;;;;;1.67;1.58;;;;;;;16.59;39.66;94925.53;5076179;28;20204;-72
2022/09/20 12:21:03;;;;;;;1.50;1.40;;;;;;;16.68;39.04;94917.59;5076807;28;20193;-73